Time;durP1;ratioP1;P1;durP2;ratioP2;P2;SDS_P1;SDS_P2;PMS_P1;PMS_P2;Temp;Humidity;BMP_temperature;BMP_pressure;BME280_temperature;BME280_humidity;BME280_pressure;Samples;Min_cycle;Max_cycle;Signal;HPM_P1;HPM_P2
2022/09/30 00:01:02;;;;;;;27.90;26.40;;;;;;;10.00;100.00;100516.84;5053036;28;20526;-46
2022/09/30 00:03:29;;;;;;;29.23;27.57;;;;;;;10.01;100.00;100521.13;5058561;28;20447;-48
2022/09/30 00:06:00;;;;;;;30.03;28.13;;;;;;;9.99;100.00;100516.00;5050947;28;20431;-48
2022/09/30 00:08:34;;;;;;;29.60;27.90;;;;;;;9.98;100.00;100513.53;5050930;28;20459;-48
2022/09/30 00:11:03;;;;;;;29.47;27.73;;;;;;;9.96;100.00;100511.06;5050901;28;20972;-45
2022/09/30 00:13:31;;;;;;;28.83;27.23;;;;;;;9.96;100.00;100520.91;5064405;28;20438;-45
2022/09/30 00:15:59;;;;;;;28.73;26.97;;;;;;;9.96;100.00;100523.56;5061748;28;20435;-45
2022/09/30 00:18:28;;;;;;;28.80;27.40;;;;;;;9.95;100.00;100521.91;5050501;28;20482;-46
2022/09/30 00:20:56;;;;;;;29.47;27.77;;;;;;;9.95;100.00;100516.59;5058814;28;20455;-47
2022/09/30 00:23:25;;;;;;;29.87;28.17;;;;;;;9.93;100.00;100519.47;5067126;28;20430;-48
2022/09/30 00:25:58;;;;;;;28.63;27.00;;;;;;;9.93;100.00;100515.97;5062335;28;20950;-47
2022/09/30 00:28:26;;;;;;;29.17;27.53;;;;;;;9.94;100.00;100517.63;5050530;28;20517;-48
2022/09/30 00:30:54;;;;;;;28.63;27.00;;;;;;;9.93;100.00;100510.66;5039799;28;20460;-51
2022/09/30 00:33:22;;;;;;;29.33;27.57;;;;;;;9.92;100.00;100523.13;5050813;28;20492;-49
2022/09/30 00:35:49;;;;;;;29.13;27.43;;;;;;;9.92;100.00;100515.16;5051387;28;20941;-49
2022/09/30 00:38:17;;;;;;;29.07;27.17;;;;;;;9.92;100.00;100523.13;5050679;28;20463;-50
2022/09/30 00:40:46;;;;;;;29.80;27.90;;;;;;;9.93;100.00;100521.31;5069181;28;20484;-49
2022/09/30 00:43:16;;;;;;;28.03;26.53;;;;;;;9.93;100.00;100523.97;5052473;28;20434;-49
2022/09/30 00:45:51;;;;;;;28.80;27.00;;;;;;;9.92;100.00;100527.63;5070871;28;21017;-50
2022/09/30 00:48:24;;;;;;;30.13;27.93;;;;;;;9.91;100.00;100518.03;5056664;28;20467;-48
2022/09/30 00:50:54;;;;;;;29.33;27.63;;;;;;;9.92;100.00;100525.81;5069616;28;20500;-52
2022/09/30 00:53:29;;;;;;;29.60;27.80;;;;;;;9.92;100.00;100530.31;5070725;28;20453;-51
2022/09/30 00:56:02;;;;;;;27.80;26.30;;;;;;;9.92;100.00;100527.63;5070862;28;20483;-49
2022/09/30 00:58:35;;;;;;;27.30;25.90;;;;;;;9.92;100.00;100531.13;5064811;28;20502;-51
2022/09/30 01:01:03;;;;;;;28.73;27.10;;;;;;;9.91;100.00;100534.84;5032919;28;20460;-45
2022/09/30 01:03:33;;;;;;;27.83;26.20;;;;;;;9.91;100.00;100536.66;5050493;28;20439;-48
2022/09/30 01:06:02;;;;;;;27.47;26.00;;;;;;;9.88;100.00;100529.06;5050865;28;20432;-51
2022/09/30 01:08:33;;;;;;;28.43;26.60;;;;;;;9.89;100.00;100538.69;5054453;28;20482;-48
2022/09/30 01:11:01;;;;;;;27.37;25.87;;;;;;;9.87;100.00;100536.22;5068339;28;20450;-49
2022/09/30 01:13:36;;;;;;;29.80;27.97;;;;;;;9.86;100.00;100536.41;5050444;28;20549;-47
2022/09/30 01:16:25;;;;;;;27.83;26.40;;;;;;;9.86;100.00;100544.41;5050867;28;20461;-47
2022/09/30 01:19:05;;;;;;;29.60;27.60;;;;;;;9.84;100.00;100546.44;5056131;28;20458;-47
2022/09/30 01:21:49;;;;;;;27.90;26.40;;;;;;;9.84;100.00;100544.63;5063304;28;20446;-54
2022/09/30 01:24:39;;;;;;;28.90;27.23;;;;;;;9.86;100.00;100555.06;5050674;28;20435;-50
2022/09/30 01:27:43;;;;;;;28.27;26.77;;;;;;;9.87;100.00;100546.88;5000819;28;20471;-46
2022/09/30 01:30:14;;;;;;;28.97;26.93;;;;;;;9.88;100.00;100537.88;5038398;28;20423;-51
2022/09/30 01:33:21;;;;;;;29.20;27.40;;;;;;;9.91;100.00;100537.50;5065297;28;21047;-47
2022/09/30 01:36:05;;;;;;;30.10;28.33;;;;;;;9.92;100.00;100533.78;5054983;28;20493;-45
2022/09/30 01:38:44;;;;;;;28.90;27.27;;;;;;;9.94;100.00;100538.94;5058853;28;20462;-46
2022/09/30 01:41:21;;;;;;;28.20;26.50;;;;;;;9.96;100.00;100534.22;5037780;28;20508;-46
2022/09/30 01:43:57;;;;;;;28.77;27.27;;;;;;;9.97;100.00;100539.34;5054099;28;20431;-46
2022/09/30 01:46:33;;;;;;;27.27;25.77;;;;;;;9.99;100.00;100533.81;5067237;28;20426;-46
2022/09/30 01:49:11;;;;;;;28.53;26.83;;;;;;;10.01;100.00;100543.25;5073243;28;20481;-51
2022/09/30 01:51:43;;;;;;;28.47;26.77;;;;;;;10.02;100.00;100549.41;5066409;28;20459;-49
2022/09/30 01:54:18;;;;;;;28.70;27.00;;;;;;;10.02;100.00;100546.75;5072278;28;20491;-45
2022/09/30 01:56:49;;;;;;;29.17;27.57;;;;;;;10.02;100.00;100546.75;5073510;28;20462;-46
2022/09/30 01:59:23;;;;;;;30.07;28.43;;;;;;;10.03;100.00;100553.75;5067156;28;21027;-47
2022/09/30 02:01:55;;;;;;;28.77;27.07;;;;;;;10.02;100.00;100558.25;5062122;28;20450;-45
2022/09/30 02:04:27;;;;;;;27.87;26.43;;;;;;;10.01;100.00;100556.59;5074203;28;20943;-46
2022/09/30 02:07:01;;;;;;;28.17;26.67;;;;;;;10.02;100.00;100570.72;5056063;28;20466;-48
2022/09/30 02:09:34;;;;;;;30.10;28.10;;;;;;;10.03;100.00;100559.88;5066651;28;20422;-47
2022/09/30 02:12:06;;;;;;;29.93;27.93;;;;;;;10.04;100.00;100558.03;5072504;28;20540;-46
2022/09/30 02:14:39;;;;;;;29.73;28.03;;;;;;;10.05;100.00;100553.53;5074343;28;20430;-46
2022/09/30 02:17:15;;;;;;;29.37;27.87;;;;;;;10.05;100.00;100561.50;5072746;28;20466;-46
2022/09/30 02:19:45;;;;;;;30.27;27.67;;;;;;;10.06;100.00;100555.19;5061546;28;20479;-49
2022/09/30 02:22:18;;;;;;;29.17;27.67;;;;;;;10.07;100.00;100556.81;5061835;28;20452;-45
2022/09/30 02:24:51;;;;;;;28.63;27.23;;;;;;;10.07;100.00;100554.97;5054124;28;20481;-48
2022/09/30 02:27:25;;;;;;;29.03;27.03;;;;;;;10.08;100.00;100553.13;5052940;28;20469;-45
2022/09/30 02:29:56;;;;;;;28.13;26.53;;;;;;;10.06;100.00;100553.34;5060501;28;20424;-47
2022/09/30 02:32:27;;;;;;;30.60;28.20;;;;;;;10.07;100.00;100551.47;5056266;28;20462;-46
2022/09/30 02:35:00;;;;;;;28.57;27.03;;;;;;;10.07;100.00;100557.63;5073629;28;20564;-45
2022/09/30 02:37:34;;;;;;;27.50;26.10;;;;;;;10.08;100.00;100561.13;5066461;28;20463;-46
2022/09/30 02:40:06;;;;;;;30.07;27.70;;;;;;;10.08;100.00;100561.13;5052890;28;20427;-46
2022/09/30 02:42:34;;;;;;;28.70;26.87;;;;;;;10.09;100.00;100568.09;5052570;28;20471;-45
2022/09/30 02:45:07;;;;;;;28.90;27.17;;;;;;;10.09;100.00;100566.28;5052371;28;20435;-46
2022/09/30 02:47:48;;;;;;;28.00;26.50;;;;;;;10.09;100.00;100579.59;5060454;28;20484;-46
2022/09/30 02:50:20;;;;;;;28.80;27.40;;;;;;;10.08;100.00;100572.59;5053248;28;20427;-45
2022/09/30 02:53:03;;;;;;;27.67;26.17;;;;;;;10.08;100.00;100575.28;5052121;28;20891;-46
2022/09/30 02:55:35;;;;;;;28.53;27.07;;;;;;;10.08;100.00;100569.94;5053215;28;20435;-45
2022/09/30 02:58:09;;;;;;;28.47;26.87;;;;;;;10.09;100.00;100579.59;5063182;28;20454;-45
2022/09/30 03:00:37;;;;;;;28.37;26.87;;;;;;;10.11;100.00;100572.22;5072785;28;20938;-47
2022/09/30 03:03:09;;;;;;;29.50;27.67;;;;;;;10.12;100.00;100573.88;5071530;28;20516;-46
2022/09/30 03:05:36;;;;;;;30.70;28.20;;;;;;;10.10;100.00;100573.22;5073065;28;20430;-47
2022/09/30 03:08:05;;;;;;;30.23;28.23;;;;;;;10.12;100.00;100576.53;5071815;28;20987;-48
2022/09/30 03:10:33;;;;;;;28.43;26.90;;;;;;;10.12;100.00;100578.38;5072738;28;20434;-50
2022/09/30 03:13:19;;;;;;;30.67;28.40;;;;;;;10.12;100.00;100586.38;5071315;28;20438;-49
2022/09/30 03:18:30;;;;;;;28.00;26.40;;;;;;;10.13;100.00;100588.84;5073340;22;20531;-49
2022/09/30 03:21:08;;;;;;;28.90;27.30;;;;;;;10.14;100.00;100587.00;5060188;28;20196;-46
2022/09/30 03:24:11;;;;;;;29.20;27.33;;;;;;;10.16;100.00;100592.94;5070407;28;20487;-43
2022/09/30 03:26:52;;;;;;;30.17;28.43;;;;;;;10.15;100.00;100592.16;5071446;28;20523;-48
2022/09/30 03:29:26;;;;;;;29.17;27.30;;;;;;;10.15;100.00;100596.66;5065479;28;20471;-48
2022/09/30 03:32:07;;;;;;;29.60;28.00;;;;;;;10.15;100.00;100594.81;5041128;28;20499;-47
2022/09/30 03:34:42;;;;;;;29.33;27.53;;;;;;;10.15;100.00;100597.50;5032814;28;20420;-46
2022/09/30 03:37:20;;;;;;;30.63;28.73;;;;;;;10.14;100.00;100592.34;5070471;28;20454;-45
2022/09/30 03:39:56;;;;;;;29.00;27.30;;;;;;;10.13;100.00;100599.50;5056511;28;20481;-46
2022/09/30 03:42:27;;;;;;;29.17;27.57;;;;;;;10.12;100.00;100610.34;5042329;28;20439;-47
2022/09/30 03:45:02;;;;;;;29.43;27.90;;;;;;;10.12;100.00;100610.34;5051073;28;20438;-45
2022/09/30 03:47:33;;;;;;;29.93;28.13;;;;;;;10.13;100.00;100614.63;5051946;28;20470;-45
2022/09/30 03:50:06;;;;;;;29.73;27.67;;;;;;;10.14;100.00;100614.50;5052604;28;20533;-46
2022/09/30 03:52:36;;;;;;;31.60;29.50;;;;;;;10.15;100.00;100621.47;5052522;28;20790;-45
2022/09/30 03:55:08;;;;;;;30.23;28.23;;;;;;;10.16;100.00;100632.94;5052501;28;20843;-46
2022/09/30 03:57:35;;;;;;;30.20;28.33;;;;;;;10.16;100.00;100639.09;5052039;28;20475;-45
2022/09/30 04:00:05;;;;;;;29.90;28.10;;;;;;;10.17;100.00;100640.75;5052714;28;20423;-46
2022/09/30 04:02:36;;;;;;;30.73;29.00;;;;;;;10.16;100.00;100641.75;5052331;28;20439;-48
2022/09/30 04:05:05;;;;;;;29.63;27.93;;;;;;;10.18;100.00;100638.91;5052892;28;20431;-47
2022/09/30 04:07:33;;;;;;;30.60;28.80;;;;;;;10.17;100.00;100638.06;5051873;28;20467;-46
2022/09/30 04:10:00;;;;;;;29.23;27.53;;;;;;;10.19;100.00;100644.03;5052207;28;20471;-45
2022/09/30 04:12:29;;;;;;;31.97;29.70;;;;;;;10.21;100.00;100647.34;5052407;28;20435;-46
2022/09/30 04:14:57;;;;;;;30.20;28.47;;;;;;;10.24;100.00;100651.44;5052650;28;20485;-46
2022/09/30 04:17:24;;;;;;;30.80;28.10;;;;;;;10.26;100.00;100652.06;5051816;28;20459;-46
2022/09/30 04:19:52;;;;;;;30.03;28.13;;;;;;;10.26;100.00;100654.72;5056505;28;20426;-46
2022/09/30 04:22:19;;;;;;;29.87;28.07;;;;;;;10.26;100.00;100660.06;5063388;28;20434;-45
2022/09/30 04:24:52;;;;;;;29.90;28.10;;;;;;;10.25;100.00;100661.91;5072207;28;20544;-45
2022/09/30 04:27:20;;;;;;;29.60;27.60;;;;;;;10.26;100.00;100671.53;5071309;28;20462;-45
2022/09/30 04:29:49;;;;;;;30.17;27.93;;;;;;;10.27;100.00;100675.03;5072037;28;20836;-46
2022/09/30 04:32:16;;;;;;;31.50;29.70;;;;;;;10.27;100.00;100678.53;5071680;28;20430;-47
2022/09/30 04:34:44;;;;;;;30.70;28.80;;;;;;;10.25;100.00;100675.22;5071870;28;20430;-47
2022/09/30 04:37:12;;;;;;;31.03;29.13;;;;;;;10.26;100.00;100684.88;5071424;28;20512;-49
2022/09/30 04:39:40;;;;;;;31.53;29.53;;;;;;;10.26;100.00;100686.72;5071994;28;20430;-46
2022/09/30 04:42:08;;;;;;;29.53;27.83;;;;;;;10.25;100.00;100688.53;5071764;28;20430;-49
2022/09/30 04:44:35;;;;;;;30.50;28.60;;;;;;;10.24;100.00;100686.09;5071854;28;20459;-49
2022/09/30 04:47:05;;;;;;;31.27;29.37;;;;;;;10.26;100.00;100686.72;5071646;28;20500;-46
2022/09/30 04:49:33;;;;;;;30.93;28.93;;;;;;;10.28;100.00;100693.47;5071640;28;20474;-45
2022/09/30 04:52:00;;;;;;;32.87;30.77;;;;;;;10.27;100.00;100685.69;5071778;28;20480;-46
2022/09/30 04:54:28;;;;;;;30.53;28.67;;;;;;;10.28;100.00;100682.81;5071740;28;20948;-51
2022/09/30 04:56:56;;;;;;;32.30;30.33;;;;;;;10.28;100.00;100679.34;5071109;28;20975;-46
2022/09/30 04:59:23;;;;;;;32.43;30.37;;;;;;;10.29;100.00;100684.47;5071576;28;20426;-47
2022/09/30 05:01:51;;;;;;;32.40;30.40;;;;;;;10.31;100.00;100686.94;5071280;28;20489;-45
2022/09/30 05:04:20;;;;;;;31.40;29.50;;;;;;;10.32;100.00;100693.91;5071732;28;20426;-47
2022/09/30 05:06:48;;;;;;;32.33;30.13;;;;;;;10.31;100.00;100693.09;5071055;28;20469;-46
2022/09/30 05:09:16;;;;;;;31.60;29.37;;;;;;;10.32;100.00;100693.91;5073440;28;20466;-47
2022/09/30 05:11:43;;;;;;;31.20;29.40;;;;;;;10.33;100.00;100704.41;5075512;28;20434;-48
2022/09/30 05:14:11;;;;;;;32.30;30.00;;;;;;;10.35;100.00;100704.19;5075695;28;20426;-45
2022/09/30 05:16:38;;;;;;;31.67;29.77;;;;;;;10.38;100.00;100709.13;5075107;28;21181;-47
2022/09/30 05:19:06;;;;;;;30.40;28.60;;;;;;;10.37;100.00;100702.97;5069869;28;20460;-45
2022/09/30 05:21:35;;;;;;;31.10;29.30;;;;;;;10.38;100.00;100704.63;5063751;28;20488;-45
2022/09/30 05:24:03;;;;;;;33.37;30.97;;;;;;;10.37;100.00;100708.31;5075445;28;20445;-46
2022/09/30 05:26:31;;;;;;;30.17;28.37;;;;;;;10.38;100.00;100715.28;5074891;28;20610;-49
2022/09/30 05:28:59;;;;;;;30.10;28.10;;;;;;;10.39;100.00;100708.13;5075220;28;21036;-48
2022/09/30 05:31:26;;;;;;;32.13;30.13;;;;;;;10.41;100.00;100714.06;5075077;28;20430;-45
2022/09/30 05:33:54;;;;;;;31.67;29.77;;;;;;;10.42;100.00;100711.19;5075464;28;20438;-51
2022/09/30 05:36:24;;;;;;;31.57;29.43;;;;;;;10.41;100.00;100714.91;5074929;28;20447;-48
2022/09/30 05:38:54;;;;;;;32.37;30.33;;;;;;;10.43;100.00;100720.84;5075179;28;20438;-45
2022/09/30 05:41:23;;;;;;;30.93;29.13;;;;;;;10.45;100.00;100720.66;5074886;28;20422;-50
2022/09/30 05:43:51;;;;;;;31.53;29.63;;;;;;;10.45;100.00;100723.34;5074720;28;20484;-49
2022/09/30 05:46:19;;;;;;;30.80;28.60;;;;;;;10.45;100.00;100718.00;5074314;28;20450;-46
2022/09/30 05:48:47;;;;;;;31.97;29.40;;;;;;;10.46;100.00;100724.97;5075085;28;20500;-45
2022/09/30 05:51:15;;;;;;;31.37;29.40;;;;;;;10.48;100.00;100717.63;5074707;28;20507;-45
2022/09/30 05:53:43;;;;;;;31.50;29.30;;;;;;;10.49;100.00;100722.72;5075019;28;20430;-46
2022/09/30 05:56:12;;;;;;;32.60;30.23;;;;;;;10.51;100.00;100714.56;5074717;28;20450;-45
2022/09/30 05:58:40;;;;;;;31.00;29.07;;;;;;;10.51;100.00;100715.34;5074680;28;20846;-46
2022/09/30 06:01:11;;;;;;;32.67;30.57;;;;;;;10.51;100.00;100707.34;5074726;28;20434;-48
2022/09/30 06:03:41;;;;;;;33.47;31.10;;;;;;;10.52;100.00;100714.34;5074904;28;20462;-48
2022/09/30 06:06:09;;;;;;;31.90;29.90;;;;;;;10.56;100.00;100717.44;5074713;28;20442;-46
2022/09/30 06:08:36;;;;;;;32.63;30.53;;;;;;;10.59;100.00;100724.22;5073914;28;20454;-47
2022/09/30 06:11:10;;;;;;;32.27;30.33;;;;;;;10.68;100.00;100723.03;5074495;28;20543;-48
2022/09/30 06:13:39;;;;;;;31.50;29.50;;;;;;;10.80;100.00;100729.47;5074549;28;20966;-47
2022/09/30 06:16:08;;;;;;;31.57;29.37;;;;;;;10.95;100.00;100735.47;5074578;28;20472;-46
2022/09/30 06:18:37;;;;;;;30.33;28.30;;;;;;;11.10;100.00;100728.97;5073902;28;21013;-48
2022/09/30 06:21:05;;;;;;;33.30;31.00;;;;;;;11.25;100.00;100726.16;5057792;28;20493;-47
2022/09/30 06:23:33;;;;;;;30.57;27.90;;;;;;;11.38;100.00;100728.84;5072794;28;20438;-48
2022/09/30 06:26:03;;;;;;;31.00;29.20;;;;;;;11.48;100.00;100725.78;5074408;28;20462;-48
2022/09/30 06:28:32;;;;;;;30.63;28.83;;;;;;;11.50;100.00;100731.72;5073810;28;20507;-45
2022/09/30 06:31:02;;;;;;;33.20;30.97;;;;;;;11.51;100.00;100725.38;5073990;28;20542;-49
2022/09/30 06:33:30;;;;;;;30.77;28.97;;;;;;;11.51;100.00;100731.53;5074091;28;21047;-49
2022/09/30 06:35:58;;;;;;;33.17;31.07;;;;;;;11.54;100.00;100728.47;5074288;28;20464;-46
2022/09/30 06:38:27;;;;;;;32.13;30.00;;;;;;;11.54;100.00;100732.97;5073563;28;20535;-47
2022/09/30 06:40:55;;;;;;;31.10;29.40;;;;;;;11.56;100.00;100729.06;5073894;28;20423;-46
2022/09/30 06:43:23;;;;;;;31.67;29.77;;;;;;;11.61;100.00;100741.84;5074064;28;20434;-46
2022/09/30 06:45:50;;;;;;;30.90;29.00;;;;;;;11.72;100.00;100743.94;5073915;28;20479;-50
2022/09/30 06:48:22;;;;;;;32.33;30.33;;;;;;;11.79;100.00;100741.28;5073626;28;20459;-45
2022/09/30 06:51:04;;;;;;;31.10;29.10;;;;;;;11.87;100.00;100749.91;5073612;28;20507;-48
2022/09/30 06:53:34;;;;;;;31.57;29.70;;;;;;;11.90;100.00;100733.47;5073903;28;20491;-48
2022/09/30 06:56:02;;;;;;;32.77;30.57;;;;;;;11.92;100.00;100741.25;5074032;28;20419;-47
2022/09/30 06:58:29;;;;;;;32.60;30.77;;;;;;;11.92;100.00;100735.91;5072826;28;20511;-48
2022/09/30 07:00:58;;;;;;;32.53;30.63;;;;;;;11.86;100.00;100731.41;5073632;28;20434;-49
2022/09/30 07:03:32;;;;;;;33.03;31.13;;;;;;;11.86;100.00;100740.25;5073833;28;20430;-48
2022/09/30 07:06:02;;;;;;;33.57;31.53;;;;;;;11.87;100.00;100739.22;5073652;28;20842;-48
2022/09/30 07:08:32;;;;;;;31.70;29.60;;;;;;;11.97;100.00;100752.19;5072816;28;20454;-48
2022/09/30 07:11:01;;;;;;;30.90;29.10;;;;;;;12.13;100.00;100759.78;5073383;28;20516;-46
2022/09/30 07:13:29;;;;;;;32.47;30.37;;;;;;;12.29;100.00;100750.50;5073587;28;20434;-46
2022/09/30 07:15:56;;;;;;;32.80;30.80;;;;;;;12.44;100.00;100768.00;5073388;28;20479;-48
2022/09/30 07:18:26;;;;;;;31.73;29.93;;;;;;;12.53;100.00;100764.06;5073033;28;20462;-44
2022/09/30 07:20:56;;;;;;;31.60;29.97;;;;;;;12.66;100.00;100769.38;5058377;28;20481;-47
2022/09/30 07:23:25;;;;;;;31.30;29.60;;;;;;;12.72;100.00;100767.75;5070193;28;20434;-46
2022/09/30 07:25:56;;;;;;;33.80;31.50;;;;;;;12.75;100.00;100765.44;5073094;28;20491;-46
2022/09/30 07:28:26;;;;;;;32.67;30.57;;;;;;;12.76;100.00;100766.25;5072679;28;20466;-45
2022/09/30 07:30:56;;;;;;;32.53;30.50;;;;;;;12.83;100.00;100767.09;5072980;28;20508;-50
2022/09/30 07:33:44;;;;;;;30.17;28.17;;;;;;;13.30;100.00;100765.88;5073017;28;21024;-45
2022/09/30 07:36:17;;;;;;;33.87;31.67;;;;;;;13.49;100.00;100773.00;5072879;28;20458;-50
2022/09/30 07:38:48;;;;;;;36.90;34.23;;;;;;;13.53;100.00;100765.38;5073056;28;20434;-48
2022/09/30 07:41:20;;;;;;;36.93;34.17;;;;;;;13.62;100.00;100761.41;5072824;28;20427;-47
2022/09/30 07:43:49;;;;;;;33.13;31.10;;;;;;;13.58;100.00;100761.00;5072896;28;20998;-47
2022/09/30 07:46:23;;;;;;;34.57;32.27;;;;;;;13.71;100.00;100766.25;5072578;28;20855;-46
2022/09/30 07:48:55;;;;;;;32.00;30.10;;;;;;;13.82;100.00;100762.91;5072774;28;20425;-47
2022/09/30 07:51:29;;;;;;;33.80;31.70;;;;;;;13.88;100.00;100755.84;5072641;28;20470;-46
2022/09/30 07:53:58;;;;;;;33.83;30.93;;;;;;;13.97;100.00;100751.03;5072722;28;20454;-48
2022/09/30 07:56:27;;;;;;;32.57;30.60;;;;;;;14.17;100.00;100752.53;5072117;28;20812;-47
2022/09/30 07:59:15;;;;;;;32.17;30.37;;;;;;;14.28;100.00;100757.16;5072518;28;20446;-47
2022/09/30 08:01:43;;;;;;;31.43;29.50;;;;;;;14.23;100.00;100762.38;5072417;28;20430;-45
2022/09/30 08:04:12;;;;;;;31.00;29.10;;;;;;;14.31;100.00;100762.09;5072352;28;20434;-45
2022/09/30 08:06:44;;;;;;;30.63;28.93;;;;;;;14.42;100.00;100771.31;5072055;28;20465;-45
2022/09/30 08:09:12;;;;;;;31.30;29.60;;;;;;;14.44;100.00;100769.22;5072383;28;20430;-45
2022/09/30 08:11:41;;;;;;;30.40;28.87;;;;;;;14.40;100.00;100770.69;5071894;28;20474;-47
2022/09/30 08:14:14;;;;;;;30.10;28.50;;;;;;;14.43;100.00;100775.63;5072392;28;20484;-46
2022/09/30 08:16:41;;;;;;;34.47;32.40;;;;;;;14.64;100.00;100777.06;5071727;28;20539;-45
2022/09/30 08:19:13;;;;;;;34.23;32.03;;;;;;;14.80;100.00;100779.19;5065340;28;20436;-45
2022/09/30 08:21:42;;;;;;;32.47;30.57;;;;;;;14.94;100.00;100775.28;5062197;28;20427;-48
2022/09/30 08:24:11;;;;;;;32.87;30.60;;;;;;;15.19;100.00;100773.34;5072347;28;20916;-46
2022/09/30 08:26:39;;;;;;;32.57;30.77;;;;;;;15.34;100.00;100772.97;5071421;28;21032;-50
2022/09/30 08:29:06;;;;;;;30.73;29.03;;;;;;;15.22;100.00;100761.34;5072031;28;20480;-46
2022/09/30 08:31:34;;;;;;;30.83;29.23;;;;;;;15.05;100.00;100779.13;5071836;28;20466;-47
2022/09/30 08:34:02;;;;;;;30.13;28.60;;;;;;;14.92;100.00;100775.53;5072043;28;20458;-47
2022/09/30 08:36:30;;;;;;;30.13;28.63;;;;;;;15.03;100.00;100770.44;5071174;28;20512;-45
2022/09/30 08:38:59;;;;;;;30.33;28.83;;;;;;;15.25;100.00;100777.81;5072098;28;20488;-47
2022/09/30 08:41:45;;;;;;;29.73;28.00;;;;;;;15.69;100.00;100773.94;5071880;28;20422;-49
2022/09/30 08:44:25;;;;;;;29.83;28.23;;;;;;;15.98;100.00;100772.25;5071102;28;20425;-49
2022/09/30 08:46:59;;;;;;;31.77;29.80;;;;;;;15.99;100.00;100779.28;5071288;28;20465;-46
2022/09/30 08:49:39;;;;;;;31.93;30.20;;;;;;;15.90;100.00;100781.47;5071908;28;20476;-45
2022/09/30 08:52:16;;;;;;;33.10;31.20;;;;;;;16.13;99.54;100779.91;5071723;28;20531;-46
2022/09/30 08:54:59;;;;;;;29.17;27.70;;;;;;;16.38;98.35;100781.31;5071728;28;20430;-50
2022/09/30 08:57:33;;;;;;;30.13;28.70;;;;;;;16.76;99.30;100791.63;5071093;28;20474;-46
2022/09/30 09:00:06;;;;;;;29.10;27.70;;;;;;;16.67;92.51;100787.66;5071898;28;20479;-48
2022/09/30 09:02:38;;;;;;;28.23;26.93;;;;;;;16.49;91.20;100791.25;5071602;28;20495;-50
2022/09/30 09:05:09;;;;;;;27.97;26.63;;;;;;;16.41;92.70;100794.31;5071604;28;20512;-46
2022/09/30 09:07:45;;;;;;;26.17;25.07;;;;;;;16.30;93.50;100797.00;5071071;28;20993;-50
2022/09/30 09:10:28;;;;;;;26.60;25.40;;;;;;;16.15;92.59;100800.13;5071889;28;20487;-49
2022/09/30 09:13:02;;;;;;;23.50;22.50;;;;;;;16.04;90.38;100795.53;5071510;28;20539;-47
2022/09/30 09:15:42;;;;;;;24.40;23.40;;;;;;;16.32;93.16;100797.56;5071609;28;20425;-48
2022/09/30 09:18:52;;;;;;;24.03;23.13;;;;;;;16.19;89.22;100797.81;5070655;28;20469;-48
2022/09/30 09:21:23;;;;;;;22.30;21.50;;;;;;;16.13;89.40;100796.84;5040205;28;20431;-46
2022/09/30 09:23:54;;;;;;;22.07;21.27;;;;;;;15.96;86.32;100799.38;5031460;28;20447;-49
2022/09/30 09:26:24;;;;;;;21.93;21.10;;;;;;;15.85;87.16;100792.13;5030979;28;21012;-47
2022/09/30 09:29:06;;;;;;;21.53;20.63;;;;;;;16.03;88.96;100791.22;5031917;28;20459;-48
2022/09/30 09:31:34;;;;;;;22.43;21.60;;;;;;;16.38;88.72;100797.47;5079084;22;20484;-44
2022/09/30 09:34:10;;;;;;;20.63;19.73;;;;;;;16.26;85.04;100795.81;5092639;28;20791;-42
2022/09/30 09:36:58;;;;;;;21.50;20.60;;;;;;;16.30;86.47;100788.91;5092379;28;20956;-44
2022/09/30 09:39:49;;;;;;;21.13;20.37;;;;;;;16.53;87.67;100787.06;5092384;28;20425;-44
2022/09/30 09:42:39;;;;;;;20.93;20.23;;;;;;;16.51;85.84;100793.75;5092491;28;20518;-42
2022/09/30 09:45:20;;;;;;;21.00;20.20;;;;;;;16.89;87.85;100804.03;5092428;28;20850;-44
2022/09/30 09:47:51;;;;;;;19.90;19.10;;;;;;;16.68;85.16;100799.25;5092287;28;20868;-45
2022/09/30 09:50:23;;;;;;;20.80;19.90;;;;;;;16.64;85.06;100800.75;5092588;28;20471;-44
2022/09/30 09:53:05;;;;;;;19.47;18.70;;;;;;;16.57;85.22;100801.72;5092259;28;20518;-45
2022/09/30 09:55:35;;;;;;;20.43;19.53;;;;;;;16.81;85.70;100802.53;5094578;28;20467;-45
2022/09/30 09:58:12;;;;;;;18.83;18.13;;;;;;;16.73;83.98;100802.88;5096288;28;20450;-46
2022/09/30 10:03:27;;;;;;;18.70;18.10;;;;;;;17.10;78.44;100798.84;5096023;28;20472;-42
2022/09/30 10:06:07;;;;;;;18.17;17.40;;;;;;;17.05;80.00;100797.94;5096217;28;20433;-44
2022/09/30 10:08:38;;;;;;;17.40;16.90;;;;;;;16.85;79.30;100801.00;5096175;28;20795;-44
2022/09/30 10:11:07;;;;;;;16.97;16.37;;;;;;;16.58;77.39;100803.34;5096054;28;20449;-44
2022/09/30 10:13:44;;;;;;;15.80;15.30;;;;;;;16.54;78.22;100799.50;5096112;28;20926;-44
2022/09/30 10:16:28;;;;;;;15.00;14.40;;;;;;;16.64;81.34;100798.91;5096186;28;20429;-43
2022/09/30 10:18:56;;;;;;;14.90;14.40;;;;;;;16.64;75.81;100793.50;5095820;28;20844;-48
2022/09/30 10:21:26;;;;;;;13.23;12.83;;;;;;;16.42;78.07;100792.44;5086897;28;20479;-44
2022/09/30 10:23:53;;;;;;;13.07;12.57;;;;;;;16.62;82.59;100798.31;5095931;28;20486;-44
2022/09/30 10:26:24;;;;;;;12.10;11.80;;;;;;;17.03;82.25;100795.47;5095446;28;20487;-44
2022/09/30 10:28:54;;;;;;;11.97;11.43;;;;;;;17.23;79.98;100794.25;5095445;28;20914;-45
2022/09/30 10:31:25;;;;;;;12.13;11.73;;;;;;;17.11;77.34;100791.59;5095409;28;20456;-44
2022/09/30 10:34:03;;;;;;;11.00;10.60;;;;;;;16.88;77.61;100795.13;5096782;28;20429;-44
2022/09/30 10:36:33;;;;;;;10.90;10.50;;;;;;;16.78;78.80;100799.50;5096986;28;20486;-45
2022/09/30 10:39:05;;;;;;;10.97;10.60;;;;;;;17.06;81.77;100805.75;5097254;28;20836;-45
2022/09/30 10:41:35;;;;;;;11.53;11.13;;;;;;;17.26;79.68;100797.31;5096374;28;20449;-49
2022/09/30 10:44:13;;;;;;;11.67;11.27;;;;;;;17.62;79.72;100804.22;5095724;28;20433;-44
2022/09/30 10:46:43;;;;;;;11.03;10.60;;;;;;;17.60;77.39;100804.47;5094966;28;20738;-50
2022/09/30 10:49:22;;;;;;;10.27;9.97;;;;;;;17.26;75.49;100805.38;5094764;28;20436;-46
2022/09/30 10:51:50;;;;;;;9.70;9.30;;;;;;;17.01;77.17;100804.84;5094651;28;20476;-44
2022/09/30 10:54:48;;;;;;;10.50;10.00;;;;;;;16.84;79.49;100796.69;5094848;28;20930;-45
2022/09/30 10:57:20;;;;;;;9.37;9.07;;;;;;;16.91;81.31;100801.91;5082242;28;20452;-47
2022/09/30 10:59:52;;;;;;;10.40;9.70;;;;;;;16.83;81.22;100791.50;5095148;28;20474;-47
2022/09/30 11:02:29;;;;;;;10.00;9.33;;;;;;;16.94;83.11;100794.19;5094470;28;20514;-43
2022/09/30 11:05:05;;;;;;;11.10;10.63;;;;;;;17.56;84.32;100797.09;5095006;28;20436;-47
2022/09/30 11:07:39;;;;;;;11.23;10.80;;;;;;;18.28;81.03;100789.19;5092755;28;21062;-49
2022/09/30 11:10:18;;;;;;;10.80;10.17;;;;;;;18.57;78.51;100796.16;5093979;28;20462;-44
2022/09/30 11:12:53;;;;;;;10.80;10.40;;;;;;;18.84;77.07;100796.25;5093136;28;20477;-45
2022/09/30 11:15:28;;;;;;;10.93;10.43;;;;;;;18.59;73.17;100794.84;5093654;28;20432;-44
2022/09/30 11:18:00;;;;;;;11.40;10.90;;;;;;;18.41;73.47;100797.75;5093721;28;20461;-47
2022/09/30 11:20:34;;;;;;;10.70;10.20;;;;;;;18.58;72.82;100795.06;5084539;28;20495;-45
2022/09/30 11:23:07;;;;;;;11.70;11.20;;;;;;;18.70;75.95;100799.31;5093546;28;20449;-46
2022/09/30 11:25:43;;;;;;;10.90;10.50;;;;;;;18.77;73.59;100796.44;5094183;28;20425;-42
2022/09/30 11:28:45;;;;;;;12.47;11.47;;;;;;;18.96;76.58;100795.09;5093527;28;20533;-44
2022/09/30 11:31:26;;;;;;;10.20;9.80;;;;;;;18.64;74.63;100797.59;5060777;28;20456;-45
2022/09/30 11:34:08;;;;;;;9.60;9.20;;;;;;;18.42;76.33;100791.31;5094103;28;20469;-45